sensor_id;sensor_type;location;lat;lon;timestamp;pressure;altitude;pressure_sealevel;temperature;humidity
46291;BME280;32023;44.444;26.006;2023-06-14T00:01:21;100124.31;;;18.44;57.96
46291;BME280;32023;44.444;26.006;2023-06-14T00:03:48;100128.28;;;18.43;58.12
46291;BME280;32023;44.444;26.006;2023-06-14T00:06:15;100126.09;;;18.40;58.25
46291;BME280;32023;44.444;26.006;2023-06-14T00:08:42;100134.47;;;18.40;58.00
46291;BME280;32023;44.444;26.006;2023-06-14T00:11:08;100141.19;;;18.39;57.90
46291;BME280;32023;44.444;26.006;2023-06-14T00:13:35;100125.59;;;18.38;58.03
46291;BME280;32023;44.444;26.006;2023-06-14T00:16:01;100130.66;;;18.36;57.90
46291;BME280;32023;44.444;26.006;2023-06-14T00:18:27;100124.09;;;18.32;57.77
46291;BME280;32023;44.444;26.006;2023-06-14T00:20:58;100123.56;;;18.29;57.82
46291;BME280;32023;44.444;26.006;2023-06-14T00:23:24;100113.56;;;18.28;57.75
46291;BME280;32023;44.444;26.006;2023-06-14T00:25:51;100120.59;;;18.26;57.45
46291;BME280;32023;44.444;26.006;2023-06-14T00:28:17;100119.28;;;18.23;57.40
46291;BME280;32023;44.444;26.006;2023-06-14T00:30:44;100114.00;;;18.22;57.48
46291;BME280;32023;44.444;26.006;2023-06-14T00:33:12;100117.44;;;18.19;57.44
46291;BME280;32023;44.444;26.006;2023-06-14T00:35:39;100114.31;;;18.20;57.35
46291;BME280;32023;44.444;26.006;2023-06-14T00:38:06;100110.72;;;18.20;57.32
46291;BME280;32023;44.444;26.006;2023-06-14T00:40:32;100110.19;;;18.18;57.42
46291;BME280;32023;44.444;26.006;2023-06-14T00:42:58;100113.50;;;18.20;57.30
46291;BME280;32023;44.444;26.006;2023-06-14T00:45:25;100110.72;;;18.20;57.29
46291;BME280;32023;44.444;26.006;2023-06-14T00:47:52;100107.09;;;18.19;57.19
46291;BME280;32023;44.444;26.006;2023-06-14T00:50:21;100104.63;;;18.18;57.16
46291;BME280;32023;44.444;26.006;2023-06-14T00:52:49;100107.94;;;18.20;57.23
46291;BME280;32023;44.444;26.006;2023-06-14T00:55:19;100104.50;;;18.23;57.12
46291;BME280;32023;44.444;26.006;2023-06-14T00:57:45;100102.03;;;18.21;57.17
46291;BME280;32023;44.444;26.006;2023-06-14T01:00:12;100102.19;;;18.16;57.26
46291;BME280;32023;44.444;26.006;2023-06-14T01:02:39;100093.28;;;18.14;57.32
46291;BME280;32023;44.444;26.006;2023-06-14T01:05:06;100097.22;;;18.13;57.28
46291;BME280;32023;44.444;26.006;2023-06-14T01:10:26;100100.13;;;18.08;57.46
46291;BME280;32023;44.444;26.006;2023-06-14T01:15:31;100059.47;;;17.85;57.49
46291;BME280;32023;44.444;26.006;2023-06-14T01:17:58;100084.03;;;18.05;57.61
46291;BME280;32023;44.444;26.006;2023-06-14T01:20:46;100092.72;;;18.04;57.53
46291;BME280;32023;44.444;26.006;2023-06-14T01:23:21;100085.00;;;18.01;57.41
46291;BME280;32023;44.444;26.006;2023-06-14T01:25:49;100079.53;;;17.96;57.64
46291;BME280;32023;44.444;26.006;2023-06-14T01:28:20;100082.44;;;17.91;57.62
46291;BME280;32023;44.444;26.006;2023-06-14T01:30:56;100077.19;;;17.89;57.67
46291;BME280;32023;44.444;26.006;2023-06-14T01:33:24;100063.91;;;17.86;57.85
46291;BME280;32023;44.444;26.006;2023-06-14T01:35:53;100076.47;;;17.84;58.05
46291;BME280;32023;44.444;26.006;2023-06-14T01:38:27;100084.97;;;17.78;58.12
46291;BME280;32023;44.444;26.006;2023-06-14T01:40:55;100088.75;;;17.83;57.98
46291;BME280;32023;44.444;26.006;2023-06-14T01:43:24;100081.03;;;17.79;58.02
46291;BME280;32023;44.444;26.006;2023-06-14T01:45:52;100081.03;;;17.79;58.17
46291;BME280;32023;44.444;26.006;2023-06-14T01:48:20;100086.31;;;17.81;58.01
46291;BME280;32023;44.444;26.006;2023-06-14T01:50:48;100092.38;;;17.83;58.06
46291;BME280;32023;44.444;26.006;2023-06-14T01:53:15;100091.53;;;17.83;58.16
46291;BME280;32023;44.444;26.006;2023-06-14T01:55:42;100088.25;;;17.80;58.17
46291;BME280;32023;44.444;26.006;2023-06-14T01:58:10;100101.47;;;17.75;58.29
46291;BME280;32023;44.444;26.006;2023-06-14T02:00:37;100095.41;;;17.73;58.23
46291;BME280;32023;44.444;26.006;2023-06-14T02:03:03;100101.59;;;17.70;58.41
46291;BME280;32023;44.444;26.006;2023-06-14T02:05:35;100093.75;;;17.72;58.28
46291;BME280;32023;44.444;26.006;2023-06-14T02:08:05;100098.81;;;17.70;58.21
46291;BME280;32023;44.444;26.006;2023-06-14T02:10:34;100097.78;;;17.66;58.46
46291;BME280;32023;44.444;26.006;2023-06-14T02:13:01;100100.28;;;17.67;58.20
46291;BME280;32023;44.444;26.006;2023-06-14T02:15:27;100094.47;;;17.64;58.35
46291;BME280;32023;44.444;26.006;2023-06-14T02:18:01;100099.56;;;17.62;58.43
46291;BME280;32023;44.444;26.006;2023-06-14T02:20:28;100066.88;;;17.40;58.44
46291;BME280;32023;44.444;26.006;2023-06-14T02:22:54;100098.94;;;17.65;58.57
46291;BME280;32023;44.444;26.006;2023-06-14T02:25:23;100096.97;;;17.65;58.61
46291;BME280;32023;44.444;26.006;2023-06-14T02:27:49;100103.47;;;17.61;58.63
46291;BME280;32023;44.444;26.006;2023-06-14T02:30:16;100106.06;;;17.57;58.79
46291;BME280;32023;44.444;26.006;2023-06-14T02:32:42;100109.13;;;17.56;58.83
46291;BME280;32023;44.444;26.006;2023-06-14T02:35:09;100106.34;;;17.56;58.95
46291;BME280;32023;44.444;26.006;2023-06-14T02:37:36;100107.47;;;17.55;59.03
46291;BME280;32023;44.444;26.006;2023-06-14T02:40:02;100118.28;;;17.56;58.90
46291;BME280;32023;44.444;26.006;2023-06-14T02:42:29;100124.19;;;17.55;59.06
46291;BME280;32023;44.444;26.006;2023-06-14T02:44:56;100123.16;;;17.51;59.19
46291;BME280;32023;44.444;26.006;2023-06-14T02:47:22;100126.44;;;17.53;59.09
46291;BME280;32023;44.444;26.006;2023-06-14T02:49:50;100131.22;;;17.52;59.19
46291;BME280;32023;44.444;26.006;2023-06-14T02:52:16;100128.72;;;17.51;59.25
46291;BME280;32023;44.444;26.006;2023-06-14T02:54:43;100138.13;;;17.55;59.32
46291;BME280;32023;44.444;26.006;2023-06-14T02:57:09;100136.97;;;17.56;59.02
46291;BME280;32023;44.444;26.006;2023-06-14T02:59:36;100136.38;;;17.59;59.00
46291;BME280;32023;44.444;26.006;2023-06-14T03:02:03;100140.31;;;17.58;58.95
46291;BME280;32023;44.444;26.006;2023-06-14T03:04:35;100143.47;;;17.65;58.94
46291;BME280;32023;44.444;26.006;2023-06-14T03:07:03;100142.56;;;17.69;58.69
46291;BME280;32023;44.444;26.006;2023-06-14T03:09:37;100146.38;;;17.73;58.76
46291;BME280;32023;44.444;26.006;2023-06-14T03:12:07;100146.56;;;17.77;58.84
46291;BME280;32023;44.444;26.006;2023-06-14T03:14:35;100147.88;;;17.79;58.72
46291;BME280;32023;44.444;26.006;2023-06-14T03:17:05;100150.03;;;17.83;58.55
46291;BME280;32023;44.444;26.006;2023-06-14T03:19:31;100152.53;;;17.84;58.80
46291;BME280;32023;44.444;26.006;2023-06-14T03:21:57;100156.34;;;17.88;58.51
46291;BME280;32023;44.444;26.006;2023-06-14T03:24:27;100160.63;;;17.94;58.57
46291;BME280;32023;44.444;26.006;2023-06-14T03:26:54;100169.09;;;18.03;58.27
46291;BME280;32023;44.444;26.006;2023-06-14T03:29:20;100159.50;;;18.09;58.27
46291;BME280;32023;44.444;26.006;2023-06-14T03:32:02;100167.91;;;18.17;57.89
46291;BME280;32023;44.444;26.006;2023-06-14T03:34:30;100169.06;;;18.16;57.77
46291;BME280;32023;44.444;26.006;2023-06-14T03:36:57;100162.22;;;18.22;57.80
46291;BME280;32023;44.444;26.006;2023-06-14T03:39:23;100165.69;;;18.28;57.59
46291;BME280;32023;44.444;26.006;2023-06-14T03:41:49;100171.97;;;18.34;57.45
46291;BME280;32023;44.444;26.006;2023-06-14T03:44:17;100170.09;;;18.43;57.29
46291;BME280;32023;44.444;26.006;2023-06-14T03:46:47;100168.31;;;18.47;56.99
46291;BME280;32023;44.444;26.006;2023-06-14T03:49:14;100172.09;;;18.51;57.02
46291;BME280;32023;44.444;26.006;2023-06-14T03:51:42;100162.00;;;18.55;56.75
46291;BME280;32023;44.444;26.006;2023-06-14T03:54:08;100177.59;;;18.56;56.53
46291;BME280;32023;44.444;26.006;2023-06-14T03:56:35;100167.56;;;18.55;56.53
46291;BME280;32023;44.444;26.006;2023-06-14T03:59:02;100180.56;;;18.59;56.50
46291;BME280;32023;44.444;26.006;2023-06-14T04:01:28;100165.16;;;18.62;56.28
46291;BME280;32023;44.444;26.006;2023-06-14T04:03:58;100171.75;;;18.66;56.28
46291;BME280;32023;44.444;26.006;2023-06-14T04:06:27;100164.91;;;18.72;56.22
46291;BME280;32023;44.444;26.006;2023-06-14T04:08:59;100171.69;;;18.80;56.30
46291;BME280;32023;44.444;26.006;2023-06-14T04:11:29;100176.50;;;18.88;56.08
46291;BME280;32023;44.444;26.006;2023-06-14T04:13:57;100183.75;;;18.97;55.92
46291;BME280;32023;44.444;26.006;2023-06-14T04:16:24;100172.84;;;19.09;55.50
46291;BME280;32023;44.444;26.006;2023-06-14T04:18:50;100182.22;;;19.13;55.55
46291;BME280;32023;44.444;26.006;2023-06-14T04:21:18;100185.19;;;19.17;55.52
46291;BME280;32023;44.444;26.006;2023-06-14T04:23:45;100178.97;;;19.20;55.52
46291;BME280;32023;44.444;26.006;2023-06-14T04:26:11;100184.88;;;19.18;55.36
46291;BME280;32023;44.444;26.006;2023-06-14T04:28:38;100189.28;;;19.11;55.16
46291;BME280;32023;44.444;26.006;2023-06-14T04:31:07;100193.50;;;19.08;55.24
46291;BME280;32023;44.444;26.006;2023-06-14T04:33:37;100195.94;;;19.01;55.36
46291;BME280;32023;44.444;26.006;2023-06-14T04:36:11;100196.59;;;18.98;55.71
46291;BME280;32023;44.444;26.006;2023-06-14T04:38:47;100206.72;;;18.94;55.66
46291;BME280;32023;44.444;26.006;2023-06-14T04:41:15;100201.78;;;18.91;55.76
46291;BME280;32023;44.444;26.006;2023-06-14T04:43:42;100207.38;;;18.91;55.82
46291;BME280;32023;44.444;26.006;2023-06-14T04:46:10;100207.88;;;18.93;55.77
46291;BME280;32023;44.444;26.006;2023-06-14T04:48:40;100216.25;;;18.93;55.49
46291;BME280;32023;44.444;26.006;2023-06-14T04:51:09;100207.56;;;18.95;55.50
46291;BME280;32023;44.444;26.006;2023-06-14T04:53:39;100210.66;;;18.93;55.64
46291;BME280;32023;44.444;26.006;2023-06-14T04:56:06;100218.53;;;18.91;55.60
46291;BME280;32023;44.444;26.006;2023-06-14T04:58:33;100212.97;;;18.91;55.76
46291;BME280;32023;44.444;26.006;2023-06-14T05:01:00;100220.69;;;18.94;55.75
46291;BME280;32023;44.444;26.006;2023-06-14T05:03:30;100213.50;;;19.02;55.65
46291;BME280;32023;44.444;26.006;2023-06-14T05:05:57;100211.38;;;19.07;55.55
46291;BME280;32023;44.444;26.006;2023-06-14T05:08:26;100224.41;;;19.12;55.39
46291;BME280;32023;44.444;26.006;2023-06-14T05:10:58;100229.66;;;19.13;55.16
46291;BME280;32023;44.444;26.006;2023-06-14T05:13:25;100231.81;;;19.16;55.18
46291;BME280;32023;44.444;26.006;2023-06-14T05:15:57;100229.53;;;19.18;55.14
46291;BME280;32023;44.444;26.006;2023-06-14T05:18:24;100231.16;;;19.19;55.17
46291;BME280;32023;44.444;26.006;2023-06-14T05:20:52;100237.91;;;19.18;55.21
46291;BME280;32023;44.444;26.006;2023-06-14T05:23:18;100236.94;;;19.23;55.09
46291;BME280;32023;44.444;26.006;2023-06-14T05:25:45;100237.75;;;19.23;55.15
46291;BME280;32023;44.444;26.006;2023-06-14T05:28:12;100242.09;;;19.30;55.27
46291;BME280;32023;44.444;26.006;2023-06-14T05:30:39;100232.09;;;19.37;54.95
46291;BME280;32023;44.444;26.006;2023-06-14T05:35:45;100246.22;;;19.63;54.46
46291;BME280;32023;44.444;26.006;2023-06-14T05:38:32;100245.41;;;19.71;54.06
46291;BME280;32023;44.444;26.006;2023-06-14T05:41:14;100243.47;;;19.80;53.97
46291;BME280;32023;44.444;26.006;2023-06-14T05:43:49;100237.75;;;19.94;53.65
46291;BME280;32023;44.444;26.006;2023-06-14T05:46:52;100239.75;;;20.10;53.28
46291;BME280;32023;44.444;26.006;2023-06-14T05:49:21;100241.13;;;20.30;52.87
46291;BME280;32023;44.444;26.006;2023-06-14T05:52:45;100242.44;;;20.58;52.15
46291;BME280;32023;44.444;26.006;2023-06-14T05:55:41;100241.31;;;20.77;51.76
46291;BME280;32023;44.444;26.006;2023-06-14T05:58:18;100244.25;;;20.97;50.99
46291;BME280;32023;44.444;26.006;2023-06-14T06:00:51;100246.91;;;21.11;50.54
46291;BME280;32023;44.444;26.006;2023-06-14T06:03:32;100251.47;;;21.24;50.39
46291;BME280;32023;44.444;26.006;2023-06-14T06:06:15;100257.03;;;21.41;50.11
46291;BME280;32023;44.444;26.006;2023-06-14T06:08:53;100246.63;;;21.42;49.98
46291;BME280;32023;44.444;26.006;2023-06-14T06:12:01;100255.22;;;21.37;49.85
46291;BME280;32023;44.444;26.006;2023-06-14T06:14:40;100242.84;;;21.38;50.17
46291;BME280;32023;44.444;26.006;2023-06-14T06:17:15;100247.44;;;21.51;49.71
46291;BME280;32023;44.444;26.006;2023-06-14T06:22:52;100241.84;;;21.80;49.47
46291;BME280;32023;44.444;26.006;2023-06-14T06:28:29;100253.28;;;21.75;49.59
46291;BME280;32023;44.444;26.006;2023-06-14T06:31:05;100256.22;;;21.79;49.25
46291;BME280;32023;44.444;26.006;2023-06-14T06:34:01;100252.69;;;21.90;49.11
46291;BME280;32023;44.444;26.006;2023-06-14T06:36:33;100251.09;;;22.10;48.79
46291;BME280;32023;44.444;26.006;2023-06-14T06:39:04;100261.56;;;22.30;48.56
46291;BME280;32023;44.444;26.006;2023-06-14T06:41:38;100261.00;;;22.37;48.58
46291;BME280;32023;44.444;26.006;2023-06-14T06:44:09;100259.09;;;22.49;48.33
46291;BME280;32023;44.444;26.006;2023-06-14T06:46:43;100255.34;;;22.45;48.09
46291;BME280;32023;44.444;26.006;2023-06-14T06:49:16;100256.34;;;22.41;48.48
46291;BME280;32023;44.444;26.006;2023-06-14T06:51:54;100255.06;;;22.38;48.37
46291;BME280;32023;44.444;26.006;2023-06-14T06:54:28;100255.19;;;22.42;48.44
46291;BME280;32023;44.444;26.006;2023-06-14T06:56:57;100252.78;;;22.52;48.21
46291;BME280;32023;44.444;26.006;2023-06-14T06:59:29;100248.19;;;22.77;47.49
46291;BME280;32023;44.444;26.006;2023-06-14T07:01:56;100248.78;;;22.83;47.43
46291;BME280;32023;44.444;26.006;2023-06-14T07:04:22;100256.44;;;22.94;47.09
46291;BME280;32023;44.444;26.006;2023-06-14T07:06:49;100256.47;;;23.07;46.71
46291;BME280;32023;44.444;26.006;2023-06-14T07:09:18;100258.88;;;23.29;46.75
46291;BME280;32023;44.444;26.006;2023-06-14T07:11:57;100258.50;;;23.51;46.21
46291;BME280;32023;44.444;26.006;2023-06-14T07:14:23;100259.47;;;23.67;45.67
46291;BME280;32023;44.444;26.006;2023-06-14T07:16:57;100259.81;;;23.66;45.50
46291;BME280;32023;44.444;26.006;2023-06-14T07:19:32;100264.03;;;23.84;45.24
46291;BME280;32023;44.444;26.006;2023-06-14T07:22:09;100258.41;;;24.08;44.95
46291;BME280;32023;44.444;26.006;2023-06-14T07:24:51;100263.34;;;24.35;43.96
46291;BME280;32023;44.444;26.006;2023-06-14T07:27:27;100249.41;;;24.27;43.77
46291;BME280;32023;44.444;26.006;2023-06-14T07:30:20;100249.41;;;24.15;44.06
46291;BME280;32023;44.444;26.006;2023-06-14T07:32:47;100251.50;;;24.06;44.31
46291;BME280;32023;44.444;26.006;2023-06-14T07:35:42;100250.31;;;24.07;44.04
46291;BME280;32023;44.444;26.006;2023-06-14T07:38:21;100246.59;;;24.15;44.01
46291;BME280;32023;44.444;26.006;2023-06-14T07:40:56;100246.34;;;24.32;43.73
46291;BME280;32023;44.444;26.006;2023-06-14T07:43:22;100243.25;;;24.49;43.65
46291;BME280;32023;44.444;26.006;2023-06-14T07:45:50;100250.94;;;24.64;43.50
46291;BME280;32023;44.444;26.006;2023-06-14T07:48:20;100249.28;;;24.75;43.06
46291;BME280;32023;44.444;26.006;2023-06-14T07:50:50;100250.28;;;24.83;42.55
46291;BME280;32023;44.444;26.006;2023-06-14T07:53:16;100252.63;;;24.93;42.55
46291;BME280;32023;44.444;26.006;2023-06-14T07:56:00;100251.47;;;24.94;41.71
46291;BME280;32023;44.444;26.006;2023-06-14T07:58:31;100249.22;;;25.00;41.98
46291;BME280;32023;44.444;26.006;2023-06-14T08:00:58;100249.41;;;25.07;41.67
46291;BME280;32023;44.444;26.006;2023-06-14T08:03:28;100243.34;;;25.20;41.78
46291;BME280;32023;44.444;26.006;2023-06-14T08:05:59;100243.13;;;25.41;41.10
46291;BME280;32023;44.444;26.006;2023-06-14T08:08:33;100241.22;;;25.45;40.91
46291;BME280;32023;44.444;26.006;2023-06-14T08:11:00;100236.75;;;25.44;40.69
46291;BME280;32023;44.444;26.006;2023-06-14T08:13:27;100251.72;;;25.60;40.44
46291;BME280;32023;44.444;26.006;2023-06-14T08:16:00;100242.69;;;25.70;40.14
46291;BME280;32023;44.444;26.006;2023-06-14T08:18:32;100239.06;;;25.85;40.40
46291;BME280;32023;44.444;26.006;2023-06-14T08:21:01;100244.59;;;25.98;39.81
46291;BME280;32023;44.444;26.006;2023-06-14T08:23:31;100240.47;;;26.11;39.52
46291;BME280;32023;44.444;26.006;2023-06-14T08:26:05;100244.56;;;26.29;39.03
46291;BME280;32023;44.444;26.006;2023-06-14T08:28:51;100246.50;;;26.44;38.60
46291;BME280;32023;44.444;26.006;2023-06-14T08:31:21;100240.16;;;26.66;38.00
46291;BME280;32023;44.444;26.006;2023-06-14T08:34:00;100235.25;;;26.82;37.50
46291;BME280;32023;44.444;26.006;2023-06-14T08:36:32;100232.31;;;26.95;37.31
46291;BME280;32023;44.444;26.006;2023-06-14T08:39:01;100237.00;;;27.06;36.61
46291;BME280;32023;44.444;26.006;2023-06-14T08:41:31;100244.63;;;27.25;36.25
46291;BME280;32023;44.444;26.006;2023-06-14T08:47:15;100236.13;;;27.90;35.73
46291;BME280;32023;44.444;26.006;2023-06-14T08:49:49;100231.00;;;27.99;35.03
46291;BME280;32023;44.444;26.006;2023-06-14T08:52:20;100229.38;;;27.98;35.44
46291;BME280;32023;44.444;26.006;2023-06-14T08:54:50;100232.88;;;28.14;35.04
46291;BME280;32023;44.444;26.006;2023-06-14T08:57:18;100230.66;;;28.27;34.51
46291;BME280;32023;44.444;26.006;2023-06-14T08:59:52;100229.50;;;28.31;34.64
46291;BME280;32023;44.444;26.006;2023-06-14T09:02:38;100235.69;;;28.40;34.45
46291;BME280;32023;44.444;26.006;2023-06-14T09:05:19;100227.06;;;28.59;34.15
46291;BME280;32023;44.444;26.006;2023-06-14T09:07:46;100235.78;;;28.44;33.49
46291;BME280;32023;44.444;26.006;2023-06-14T09:10:16;100229.69;;;28.15;34.01
46291;BME280;32023;44.444;26.006;2023-06-14T09:12:52;100231.59;;;28.08;34.50
46291;BME280;32023;44.444;26.006;2023-06-14T09:15:23;100237.84;;;28.20;34.59
46291;BME280;32023;44.444;26.006;2023-06-14T09:17:49;100232.06;;;28.40;33.67
46291;BME280;32023;44.444;26.006;2023-06-14T09:20:35;100225.50;;;28.62;33.67
46291;BME280;32023;44.444;26.006;2023-06-14T09:23:24;100236.72;;;28.81;33.35
46291;BME280;32023;44.444;26.006;2023-06-14T09:26:07;100203.19;;;28.90;32.83
46291;BME280;32023;44.444;26.006;2023-06-14T09:28:44;100235.03;;;29.47;32.37
46291;BME280;32023;44.444;26.006;2023-06-14T09:31:27;100228.38;;;29.73;30.91
46291;BME280;32023;44.444;26.006;2023-06-14T09:34:09;100226.56;;;29.91;30.43
46291;BME280;32023;44.444;26.006;2023-06-14T09:36:58;100223.53;;;29.73;30.83
46291;BME280;32023;44.444;26.006;2023-06-14T09:42:57;100218.31;;;30.30;30.57
46291;BME280;32023;44.444;26.006;2023-06-14T09:45:26;100220.19;;;30.66;30.04
46291;BME280;32023;44.444;26.006;2023-06-14T09:47:55;100224.44;;;31.04;29.29
46291;BME280;32023;44.444;26.006;2023-06-14T09:50:25;100231.00;;;31.33;28.67
46291;BME280;32023;44.444;26.006;2023-06-14T09:52:53;100227.44;;;31.64;28.73
46291;BME280;32023;44.444;26.006;2023-06-14T09:55:37;100222.56;;;31.68;28.73
46291;BME280;32023;44.444;26.006;2023-06-14T10:01:12;100211.56;;;31.60;29.20
46291;BME280;32023;44.444;26.006;2023-06-14T10:03:43;100205.84;;;31.84;28.52
46291;BME280;32023;44.444;26.006;2023-06-14T10:06:14;100195.28;;;32.06;28.42
46291;BME280;32023;44.444;26.006;2023-06-14T10:09:03;100187.34;;;32.84;27.30
46291;BME280;32023;44.444;26.006;2023-06-14T10:11:35;100194.13;;;33.15;27.27
46291;BME280;32023;44.444;26.006;2023-06-14T10:14:27;100191.91;;;32.61;27.01
46291;BME280;32023;44.444;26.006;2023-06-14T10:17:08;100197.28;;;32.30;28.03
46291;BME280;32023;44.444;26.006;2023-06-14T10:20:03;100197.69;;;32.04;28.17
46291;BME280;32023;44.444;26.006;2023-06-14T10:22:59;100188.78;;;31.63;28.50
46291;BME280;32023;44.444;26.006;2023-06-14T10:25:31;100183.00;;;31.28;28.89
46291;BME280;32023;44.444;26.006;2023-06-14T10:31:04;100186.47;;;30.72;30.08
46291;BME280;32023;44.444;26.006;2023-06-14T10:33:49;100191.31;;;30.64;29.92
46291;BME280;32023;44.444;26.006;2023-06-14T10:36:26;100196.81;;;30.32;30.50
46291;BME280;32023;44.444;26.006;2023-06-14T10:39:17;100201.22;;;29.72;31.86
46291;BME280;32023;44.444;26.006;2023-06-14T10:41:53;100198.28;;;29.61;32.00
46291;BME280;32023;44.444;26.006;2023-06-14T10:47:40;100201.78;;;29.88;32.00
46291;BME280;32023;44.444;26.006;2023-06-14T10:50:11;100191.19;;;30.39;31.17
46291;BME280;32023;44.444;26.006;2023-06-14T10:52:50;100203.03;;;30.55;30.63
46291;BME280;32023;44.444;26.006;2023-06-14T10:55:17;100196.75;;;31.01;30.38
46291;BME280;32023;44.444;26.006;2023-06-14T10:57:52;100208.25;;;31.43;28.94
46291;BME280;32023;44.444;26.006;2023-06-14T11:00:36;100213.09;;;31.22;29.00
46291;BME280;32023;44.444;26.006;2023-06-14T11:05:54;100200.69;;;30.68;29.71
46291;BME280;32023;44.444;26.006;2023-06-14T11:08:51;100193.97;;;30.32;30.43
46291;BME280;32023;44.444;26.006;2023-06-14T11:11:35;100194.94;;;29.96;31.83
46291;BME280;32023;44.444;26.006;2023-06-14T11:14:05;100201.19;;;30.16;31.07
46291;BME280;32023;44.444;26.006;2023-06-14T11:16:33;100186.69;;;30.35;30.61
46291;BME280;32023;44.444;26.006;2023-06-14T11:19:05;100185.47;;;30.32;30.69
46291;BME280;32023;44.444;26.006;2023-06-14T11:21:36;100183.66;;;30.06;31.16
46291;BME280;32023;44.444;26.006;2023-06-14T11:24:12;100178.28;;;29.87;31.17
46291;BME280;32023;44.444;26.006;2023-06-14T11:26:39;100178.16;;;29.80;31.25
46291;BME280;32023;44.444;26.006;2023-06-14T11:29:06;100175.03;;;29.45;31.51
46291;BME280;32023;44.444;26.006;2023-06-14T11:31:42;100184.22;;;29.31;31.85
46291;BME280;32023;44.444;26.006;2023-06-14T11:34:24;100179.38;;;29.32;31.79
46291;BME280;32023;44.444;26.006;2023-06-14T11:36:54;100189.16;;;29.38;31.94
46291;BME280;32023;44.444;26.006;2023-06-14T11:39:27;100175.41;;;29.43;32.31
46291;BME280;32023;44.444;26.006;2023-06-14T11:42:03;100176.94;;;29.30;32.14
46291;BME280;32023;44.444;26.006;2023-06-14T11:44:31;100171.91;;;29.20;32.25
46291;BME280;32023;44.444;26.006;2023-06-14T11:47:04;100170.31;;;29.19;32.58
46291;BME280;32023;44.444;26.006;2023-06-14T11:49:47;100167.03;;;29.17;32.85
46291;BME280;32023;44.444;26.006;2023-06-14T11:52:32;100142.44;;;28.88;32.85
46291;BME280;32023;44.444;26.006;2023-06-14T11:55:15;100159.91;;;28.97;32.88
46291;BME280;32023;44.444;26.006;2023-06-14T11:58:05;100158.25;;;28.89;33.38
46291;BME280;32023;44.444;26.006;2023-06-14T12:00:40;100158.56;;;28.84;33.80
46291;BME280;32023;44.444;26.006;2023-06-14T12:03:37;100159.00;;;28.86;33.94
46291;BME280;32023;44.444;26.006;2023-06-14T12:06:29;100165.59;;;28.97;33.84
46291;BME280;32023;44.444;26.006;2023-06-14T12:09:16;100165.72;;;29.07;33.74
46291;BME280;32023;44.444;26.006;2023-06-14T12:15:09;100157.00;;;28.56;34.17
46291;BME280;32023;44.444;26.006;2023-06-14T12:17:38;100160.88;;;28.75;33.91
46291;BME280;32023;44.444;26.006;2023-06-14T12:20:14;100154.72;;;29.02;32.94
46291;BME280;32023;44.444;26.006;2023-06-14T12:22:54;100151.03;;;29.35;32.47
46291;BME280;32023;44.444;26.006;2023-06-14T12:25:33;100151.22;;;29.56;32.27
46291;BME280;32023;44.444;26.006;2023-06-14T12:28:21;100149.66;;;29.62;32.74
46291;BME280;32023;44.444;26.006;2023-06-14T12:30:53;100144.69;;;29.52;32.63
46291;BME280;32023;44.444;26.006;2023-06-14T12:33:35;100146.31;;;29.13;32.94
46291;BME280;32023;44.444;26.006;2023-06-14T12:36:26;100140.06;;;28.97;32.81
46291;BME280;32023;44.444;26.006;2023-06-14T12:39:08;100131.34;;;29.16;33.41
46291;BME280;32023;44.444;26.006;2023-06-14T12:41:57;100131.09;;;29.28;33.16
46291;BME280;32023;44.444;26.006;2023-06-14T12:44:40;100124.44;;;29.57;32.71
46291;BME280;32023;44.444;26.006;2023-06-14T12:47:10;100133.03;;;29.64;32.29
46291;BME280;32023;44.444;26.006;2023-06-14T12:49:39;100127.16;;;29.40;32.79
46291;BME280;32023;44.444;26.006;2023-06-14T12:52:07;100125.00;;;29.26;32.98
46291;BME280;32023;44.444;26.006;2023-06-14T12:54:34;100121.00;;;29.31;32.73
46291;BME280;32023;44.444;26.006;2023-06-14T12:57:00;100122.69;;;29.39;32.88
46291;BME280;32023;44.444;26.006;2023-06-14T12:59:26;100114.56;;;29.34;32.83
46291;BME280;32023;44.444;26.006;2023-06-14T13:02:00;100110.59;;;29.45;32.82
46291;BME280;32023;44.444;26.006;2023-06-14T13:04:32;100109.94;;;29.70;32.29
46291;BME280;32023;44.444;26.006;2023-06-14T13:07:05;100104.75;;;29.79;32.23
46291;BME280;32023;44.444;26.006;2023-06-14T13:09:36;100112.00;;;29.73;32.00
46291;BME280;32023;44.444;26.006;2023-06-14T13:12:03;100105.81;;;29.56;32.41
46291;BME280;32023;44.444;26.006;2023-06-14T13:14:34;100103.34;;;29.51;32.27
46291;BME280;32023;44.444;26.006;2023-06-14T13:17:00;100102.94;;;29.49;32.56
46291;BME280;32023;44.444;26.006;2023-06-14T13:19:27;100104.16;;;29.52;32.56
46291;BME280;32023;44.444;26.006;2023-06-14T13:21:56;100095.19;;;29.50;32.81
46291;BME280;32023;44.444;26.006;2023-06-14T13:24:25;100090.56;;;29.28;32.87
46291;BME280;32023;44.444;26.006;2023-06-14T13:30:12;100094.72;;;28.97;33.40
46291;BME280;32023;44.444;26.006;2023-06-14T13:32:46;100093.88;;;28.93;34.00
46291;BME280;32023;44.444;26.006;2023-06-14T13:35:19;100097.06;;;28.88;33.71
46291;BME280;32023;44.444;26.006;2023-06-14T13:37:46;100100.25;;;28.83;33.94
46291;BME280;32023;44.444;26.006;2023-06-14T13:40:20;100100.25;;;28.83;33.68
46291;BME280;32023;44.444;26.006;2023-06-14T13:42:47;100092.97;;;28.82;33.43
46291;BME280;32023;44.444;26.006;2023-06-14T13:45:14;100089.69;;;28.80;33.44
46291;BME280;32023;44.444;26.006;2023-06-14T13:47:49;100087.59;;;28.73;34.42